Time;durP1;ratioP1;P1;durP2;ratioP2;P2;SDS_P1;SDS_P2;PMS_P1;PMS_P2;Temp;Humidity;BMP_temperature;BMP_pressure;BME280_temperature;BME280_humidity;BME280_pressure;Samples;Min_cycle;Max_cycle;Signal;HPM_P1;HPM_P2
2022/05/08 00:01:46;;;;;;;9.48;7.43;;;11.80;99.90;;;;;;4994457;28;20093;-84
2022/05/08 00:04:13;;;;;;;8.80;7.28;;;11.70;99.90;;;;;;4993691;28;20050;-84
2022/05/08 00:06:40;;;;;;;8.50;6.90;;;11.70;99.90;;;;;;4994156;28;20054;-84
2022/05/08 00:09:07;;;;;;;9.40;7.55;;;11.70;99.90;;;;;;4993787;28;20097;-85
2022/05/08 00:11:34;;;;;;;9.63;7.65;;;11.60;99.90;;;;;;4975014;28;20050;-84
2022/05/08 00:14:02;;;;;;;8.93;7.55;;;11.50;99.90;;;;;;4990753;28;20129;-85
2022/05/08 00:16:29;;;;;;;10.32;7.65;;;11.40;99.90;;;;;;4994151;28;20556;-86
2022/05/08 00:18:58;;;;;;;9.50;7.30;;;11.20;99.90;;;;;;4976819;28;20089;-85
2022/05/08 00:21:25;;;;;;;12.35;8.18;;;11.30;99.90;;;;;;4994150;28;20047;-86
2022/05/08 00:23:52;;;;;;;10.05;7.72;;;11.10;99.90;;;;;;4993651;28;20133;-85
2022/05/08 00:26:19;;;;;;;8.90;7.05;;;10.90;99.90;;;;;;4994198;28;20097;-85
2022/05/08 00:28:47;;;;;;;9.35;7.43;;;11.00;99.90;;;;;;4976174;28;20050;-85
2022/05/08 00:31:14;;;;;;;11.18;7.43;;;11.00;99.90;;;;;;4993781;28;20595;-85
2022/05/08 00:33:41;;;;;;;9.95;7.35;;;11.40;99.90;;;;;;4988051;28;20125;-88
2022/05/08 00:36:10;;;;;;;8.90;7.47;;;11.20;99.90;;;;;;4975881;28;20141;-86
2022/05/08 00:38:37;;;;;;;10.52;8.05;;;11.10;99.90;;;;;;4977454;28;20054;-85
2022/05/08 00:41:05;;;;;;;9.35;7.25;;;11.20;99.90;;;;;;4994090;28;20460;-86
2022/05/08 00:43:35;;;;;;;9.75;7.78;;;11.10;99.90;;;;;;4986544;28;20050;-86
2022/05/08 00:46:05;;;;;;;9.57;7.18;;;11.10;99.90;;;;;;4994099;28;20077;-85
2022/05/08 00:48:33;;;;;;;9.25;7.68;;;11.10;99.90;;;;;;4994475;28;20488;-86
2022/05/08 00:51:02;;;;;;;10.23;7.68;;;10.80;99.90;;;;;;4975740;28;20136;-87
2022/05/08 00:53:36;;;;;;;9.40;7.88;;;10.60;99.90;;;;;;4987236;28;20149;-84
2022/05/08 00:56:06;;;;;;;12.27;8.38;;;10.70;99.90;;;;;;4993571;28;20085;-84
2022/05/08 00:58:35;;;;;;;9.35;7.38;;;10.50;99.90;;;;;;4993538;28;20100;-84
2022/05/08 01:01:03;;;;;;;10.25;7.63;;;10.70;99.90;;;;;;4993184;28;20096;-83
2022/05/08 01:03:30;;;;;;;9.00;7.20;;;11.00;99.90;;;;;;4975723;28;20080;-83
2022/05/08 01:05:58;;;;;;;11.43;7.80;;;11.20;99.90;;;;;;4993131;28;20400;-83
2022/05/08 01:08:26;;;;;;;8.75;7.38;;;11.10;99.90;;;;;;4993693;28;20125;-84
2022/05/08 01:10:55;;;;;;;10.32;7.53;;;11.20;99.90;;;;;;4993153;28;20133;-83
2022/05/08 01:13:22;;;;;;;9.35;7.85;;;11.20;99.90;;;;;;4992832;28;20134;-84
2022/05/08 01:15:50;;;;;;;10.95;8.40;;;10.80;99.90;;;;;;4993740;28;20077;-84
2022/05/08 01:18:18;;;;;;;9.77;8.38;;;10.70;99.90;;;;;;4982978;28;20046;-84
2022/05/08 01:20:48;;;;;;;10.70;8.48;;;10.90;99.90;;;;;;4993451;28;20058;-83
2022/05/08 01:23:18;;;;;;;10.45;8.07;;;10.70;99.90;;;;;;4984726;28;20078;-85
2022/05/08 01:25:50;;;;;;;9.75;8.20;;;10.60;99.90;;;;;;4975471;28;20048;-84
2022/05/08 01:28:18;;;;;;;8.20;6.95;;;10.60;99.90;;;;;;4993738;28;20093;-86
2022/05/08 01:30:48;;;;;;;9.85;7.72;;;10.70;99.90;;;;;;4993898;28;20571;-85
2022/05/08 01:33:16;;;;;;;10.57;8.48;;;10.70;99.90;;;;;;4990361;28;20082;-84
2022/05/08 01:35:43;;;;;;;10.18;8.02;;;10.40;99.90;;;;;;4989371;28;20133;-85
2022/05/08 01:38:13;;;;;;;9.18;8.18;;;10.30;99.90;;;;;;4976205;28;20499;-85
2022/05/08 01:40:43;;;;;;;10.98;8.05;;;10.10;99.90;;;;;;4993109;28;20096;-85
2022/05/08 01:43:11;;;;;;;9.98;8.00;;;10.00;99.90;;;;;;4992730;28;20404;-85
2022/05/08 01:45:39;;;;;;;12.07;8.30;;;10.10;99.90;;;;;;4976388;28;20518;-84
2022/05/08 01:48:22;;;;;;;11.48;9.43;;;10.20;99.90;;;;;;4992880;28;20073;-83
2022/05/08 01:50:50;;;;;;;14.38;10.77;;;10.00;99.90;;;;;;4992804;28;20098;-84
2022/05/08 01:53:19;;;;;;;13.43;10.70;;;9.90;99.90;;;;;;4992836;28;20054;-82
2022/05/08 01:55:49;;;;;;;16.00;11.93;;;10.30;99.90;;;;;;4991145;28;20496;-84
2022/05/08 01:58:17;;;;;;;15.95;13.25;;;10.30;99.90;;;;;;4990072;28;20086;-82
2022/05/08 02:00:44;;;;;;;13.30;11.38;;;10.30;99.90;;;;;;4992997;28;20054;-83
2022/05/08 02:03:13;;;;;;;15.23;11.73;;;10.20;99.90;;;;;;4992202;28;20145;-83
2022/05/08 02:05:42;;;;;;;14.23;11.75;;;10.40;99.90;;;;;;4977565;28;20129;-83
2022/05/08 02:08:11;;;;;;;13.68;11.20;;;10.40;99.90;;;;;;4995622;28;20456;-84
2022/05/08 02:10:38;;;;;;;15.68;11.32;;;10.50;99.90;;;;;;4995262;28;20081;-82
2022/05/08 02:13:09;;;;;;;13.70;11.02;;;10.50;99.90;;;;;;4994261;28;20086;-83
2022/05/08 02:15:37;;;;;;;13.38;10.80;;;10.50;99.90;;;;;;4982714;28;20046;-82
2022/05/08 02:18:07;;;;;;;12.48;10.05;;;10.60;99.90;;;;;;4995988;28;20144;-84
2022/05/08 02:20:35;;;;;;;12.88;10.38;;;10.70;99.90;;;;;;4996183;28;20082;-84
2022/05/08 02:23:03;;;;;;;12.55;10.00;;;10.40;99.90;;;;;;4995363;28;20088;-83
2022/05/08 02:25:31;;;;;;;12.90;10.15;;;10.30;99.90;;;;;;4996087;28;20088;-83
2022/05/08 02:27:58;;;;;;;10.80;9.65;;;10.40;99.90;;;;;;4995119;28;20065;-83
2022/05/08 02:30:27;;;;;;;11.80;9.38;;;10.50;99.90;;;;;;4995395;28;20076;-83
2022/05/08 02:32:54;;;;;;;13.05;9.85;;;10.50;99.90;;;;;;4995618;28;20094;-83
2022/05/08 02:35:23;;;;;;;11.02;9.07;;;10.40;99.90;;;;;;4995746;28;20090;-83
2022/05/08 02:37:53;;;;;;;11.38;9.43;;;10.50;99.90;;;;;;4994999;28;20134;-83
2022/05/08 02:40:22;;;;;;;11.77;9.00;;;10.50;99.90;;;;;;4979860;28;20408;-83
2022/05/08 02:42:49;;;;;;;12.27;9.95;;;10.40;99.90;;;;;;4995475;28;20054;-84
2022/05/08 02:45:16;;;;;;;11.88;9.73;;;10.10;99.90;;;;;;4994256;28;20055;-85
2022/05/08 02:47:45;;;;;;;13.20;10.18;;;9.70;99.90;;;;;;4995541;28;20093;-84
2022/05/08 02:50:13;;;;;;;13.32;10.13;;;9.30;99.90;;;;;;4995185;28;20081;-84
2022/05/08 02:52:40;;;;;;;11.75;9.75;;;9.20;99.90;;;;;;4994540;28;20097;-84
2022/05/08 03:00:42;;;;;;;12.57;9.90;;;9.70;99.90;;;;;;4995534;28;20174;-84
2022/05/08 03:03:12;;;;;;;12.95;9.77;;;9.40;99.90;;;;;;4994576;28;20062;-83
2022/05/08 03:05:42;;;;;;;11.85;10.18;;;9.40;99.90;;;;;;4995323;28;20082;-82
2022/05/08 03:08:10;;;;;;;11.88;9.55;;;9.40;99.90;;;;;;4994998;28;20504;-84
2022/05/08 03:13:19;;;;;;;11.00;9.02;;;9.40;99.90;;;;;;4993983;28;20053;-82
2022/05/08 03:15:47;;;;;;;12.50;9.25;;;9.70;99.90;;;;;;4995516;28;20101;-83
2022/05/08 03:18:15;;;;;;;10.73;8.95;;;9.70;99.90;;;;;;4994363;28;20415;-85
2022/05/08 03:20:42;;;;;;;10.90;9.30;;;9.70;99.90;;;;;;4995066;28;20097;-85
2022/05/08 03:23:10;;;;;;;13.18;9.95;;;9.40;99.90;;;;;;4994819;28;20133;-85
2022/05/08 03:25:37;;;;;;;15.75;11.32;;;9.20;99.90;;;;;;4993621;28;20050;-85
2022/05/08 03:28:05;;;;;;;14.75;11.20;;;9.10;99.90;;;;;;4995008;28;20074;-81
2022/05/08 03:30:32;;;;;;;11.93;9.95;;;9.20;99.90;;;;;;4994592;28;20125;-82
2022/05/08 03:32:59;;;;;;;12.43;9.73;;;9.50;99.90;;;;;;4993629;28;20584;-82
2022/05/08 03:35:28;;;;;;;13.20;10.57;;;9.50;99.90;;;;;;4994466;28;20081;-82
2022/05/08 03:37:55;;;;;;;12.75;10.50;;;9.50;99.90;;;;;;4993835;28;20076;-83
2022/05/08 03:40:24;;;;;;;12.13;10.40;;;9.40;99.90;;;;;;4994415;28;20500;-83
2022/05/08 03:42:51;;;;;;;12.52;10.50;;;9.30;99.90;;;;;;4994370;28;20129;-83
2022/05/08 03:45:19;;;;;;;13.02;11.00;;;9.10;99.90;;;;;;4994582;28;20081;-83
2022/05/08 03:47:46;;;;;;;15.35;10.82;;;9.10;99.90;;;;;;4993992;28;20101;-83
2022/05/08 03:50:13;;;;;;;13.23;11.10;;;9.20;99.90;;;;;;4994146;28;20137;-84
2022/05/08 03:52:42;;;;;;;13.43;11.02;;;9.50;99.90;;;;;;4994608;28;20476;-84
2022/05/08 03:55:11;;;;;;;15.43;11.68;;;9.60;99.90;;;;;;4994628;28;20449;-80
2022/05/08 03:57:38;;;;;;;13.95;10.20;;;9.60;99.90;;;;;;4994218;28;20093;-83
2022/05/08 04:00:07;;;;;;;13.15;9.98;;;9.50;99.90;;;;;;4994489;28;20085;-83
2022/05/08 04:02:35;;;;;;;13.00;10.27;;;9.40;99.90;;;;;;4992683;28;20046;-83
2022/05/08 04:05:02;;;;;;;12.15;9.50;;;9.40;99.90;;;;;;4993605;28;20078;-86
2022/05/08 04:07:30;;;;;;;12.18;10.00;;;9.50;99.90;;;;;;4994510;28;20082;-85
2022/05/08 04:09:58;;;;;;;14.27;10.02;;;9.30;99.90;;;;;;4978276;28;20078;-86
2022/05/08 04:12:26;;;;;;;12.40;10.23;;;9.10;99.90;;;;;;4987256;28;20134;-87
2022/05/08 04:14:53;;;;;;;13.23;9.70;;;9.10;99.90;;;;;;4993874;28;20050;-82
2022/05/08 04:17:21;;;;;;;12.95;9.75;;;9.30;99.90;;;;;;4993913;28;20133;-84
2022/05/08 04:19:48;;;;;;;12.75;9.60;;;9.40;99.90;;;;;;5001063;28;20076;-91
2022/05/08 04:25:01;;;;;;;12.77;10.13;;;9.40;99.90;;;;;;4998815;28;20053;-90
2022/05/08 04:27:29;;;;;;;14.77;10.50;;;9.20;99.90;;;;;;4978457;28;20039;-90
2022/05/08 04:29:56;;;;;;;14.00;10.30;;;8.90;99.90;;;;;;4959914;28;20085;-90
2022/05/08 04:32:23;;;;;;;12.85;10.63;;;8.90;99.90;;;;;;4981401;28;20476;-91
2022/05/08 04:34:50;;;;;;;11.32;9.60;;;9.00;99.90;;;;;;4969184;28;20227;-91
2022/05/08 04:37:17;;;;;;;13.40;9.93;;;9.10;99.90;;;;;;4994544;28;20085;-90
2022/05/08 04:39:44;;;;;;;12.77;10.18;;;9.20;99.90;;;;;;4981698;28;20086;-92
2022/05/08 04:42:13;;;;;;;12.38;10.13;;;9.00;99.90;;;;;;4993807;28;20472;-91
2022/05/08 04:44:40;;;;;;;12.55;10.13;;;9.00;99.90;;;;;;4988279;28;20115;-90
2022/05/08 04:47:08;;;;;;;13.82;10.93;;;9.00;99.90;;;;;;4985528;28;20073;-92
2022/05/08 04:49:35;;;;;;;11.90;9.93;;;9.00;99.90;;;;;;4973380;28;20138;-90
2022/05/08 04:52:02;;;;;;;12.02;10.07;;;9.10;99.90;;;;;;4980502;28;20050;-91
2022/05/08 04:54:29;;;;;;;12.13;10.20;;;9.10;99.90;;;;;;4987435;28;20138;-90
2022/05/08 04:56:57;;;;;;;12.32;10.43;;;9.40;99.90;;;;;;4989974;28;20445;-90
2022/05/08 04:59:25;;;;;;;12.43;9.52;;;9.30;99.90;;;;;;4994167;28;20081;-91
2022/05/08 05:01:53;;;;;;;11.55;9.13;;;9.60;99.90;;;;;;4993926;28;20081;-91
2022/05/08 05:04:20;;;;;;;11.95;9.68;;;9.60;99.90;;;;;;4969332;28;20074;-89
2022/05/08 05:06:47;;;;;;;13.10;10.52;;;9.70;99.90;;;;;;4994379;28;20096;-89
2022/05/08 05:09:15;;;;;;;13.85;10.52;;;9.50;99.90;;;;;;4976340;28;20074;-91
2022/05/08 05:11:42;;;;;;;12.77;9.90;;;9.30;99.90;;;;;;4993502;28;20104;-90
2022/05/08 05:14:09;;;;;;;12.40;10.18;;;9.20;99.90;;;;;;4994187;28;20081;-89
2022/05/08 05:16:38;;;;;;;12.38;9.70;;;9.10;99.90;;;;;;4989341;28;20078;-90
2022/05/08 05:19:05;;;;;;;12.05;9.90;;;9.20;99.90;;;;;;4993919;28;20090;-85
2022/05/08 05:21:32;;;;;;;11.65;10.13;;;9.40;99.90;;;;;;4981388;28;20050;-87
2022/05/08 05:23:59;;;;;;;15.20;10.03;;;9.40;99.90;;;;;;4983228;28;20081;-88
2022/05/08 05:26:28;;;;;;;14.65;10.45;;;9.30;99.90;;;;;;4981523;28;20577;-82
2022/05/08 05:28:55;;;;;;;12.27;10.00;;;9.20;99.90;;;;;;4992099;28;20054;-83
2022/05/08 05:31:22;;;;;;;13.40;9.88;;;9.30;99.90;;;;;;4977149;28;20073;-82
2022/05/08 05:33:52;;;;;;;11.75;9.88;;;9.20;99.90;;;;;;4982222;28;20054;-82
2022/05/08 05:36:19;;;;;;;11.10;9.68;;;9.20;99.90;;;;;;4990932;28;20577;-86
2022/05/08 05:38:46;;;;;;;13.73;9.77;;;9.10;99.90;;;;;;4992017;28;20086;-86
2022/05/08 05:41:14;;;;;;;13.63;10.30;;;9.10;99.90;;;;;;4971692;28;20088;-82
2022/05/08 05:43:41;;;;;;;13.10;10.73;;;9.20;99.90;;;;;;4987493;28;20556;-81
2022/05/08 05:48:54;;;;;;;12.00;9.82;;;9.20;99.90;;;;;;4994935;28;20177;-81
2022/05/08 05:51:21;;;;;;;12.40;9.88;;;9.30;99.90;;;;;;4995356;28;20105;-83
2022/05/08 05:53:48;;;;;;;12.38;10.05;;;9.40;99.90;;;;;;4995553;28;20072;-81
2022/05/08 05:56:15;;;;;;;12.05;9.90;;;9.70;99.90;;;;;;4995536;28;20133;-82
2022/05/08 05:58:42;;;;;;;11.50;9.32;;;9.90;99.90;;;;;;4994793;28;20137;-83
2022/05/08 06:01:10;;;;;;;12.57;9.60;;;9.70;99.90;;;;;;4988302;28;20548;-81
2022/05/08 06:03:38;;;;;;;11.88;9.52;;;9.70;99.90;;;;;;4995067;28;20532;-89
2022/05/08 06:06:07;;;;;;;11.27;9.48;;;9.80;99.90;;;;;;4996512;28;20074;-89
2022/05/08 06:08:34;;;;;;;13.63;9.93;;;9.90;99.90;;;;;;4996212;28;20081;-81
2022/05/08 06:11:01;;;;;;;12.30;10.40;;;9.90;99.90;;;;;;4997384;28;20085;-88
2022/05/08 06:13:29;;;;;;;11.90;9.95;;;9.90;99.90;;;;;;4970294;28;20069;-87
2022/05/08 06:15:56;;;;;;;11.05;8.85;;;10.00;99.90;;;;;;4978417;28;20101;-88
2022/05/08 06:18:24;;;;;;;11.02;9.43;;;10.00;99.90;;;;;;4992198;28;20488;-86
2022/05/08 06:20:52;;;;;;;12.57;10.32;;;10.20;99.90;;;;;;4979101;28;20085;-87
2022/05/08 06:23:21;;;;;;;13.05;11.05;;;10.10;99.90;;;;;;4977839;28;20053;-87
2022/05/08 06:25:48;;;;;;;13.95;11.40;;;10.10;99.90;;;;;;4996941;28;20133;-88
2022/05/08 06:28:19;;;;;;;15.02;12.00;;;9.80;99.90;;;;;;4996585;28;20123;-88
2022/05/08 06:30:47;;;;;;;15.75;11.27;;;9.60;99.90;;;;;;4983442;28;20203;-87
2022/05/08 06:33:14;;;;;;;13.60;11.65;;;9.70;99.90;;;;;;4996256;28;20137;-87
2022/05/08 06:35:43;;;;;;;13.93;11.48;;;9.90;99.90;;;;;;4995022;28;20050;-87
2022/05/08 06:38:11;;;;;;;12.90;10.85;;;10.00;99.90;;;;;;4980978;28;20046;-87
2022/05/08 06:40:40;;;;;;;13.27;11.05;;;10.10;99.90;;;;;;4982566;28;20057;-89
2022/05/08 06:43:11;;;;;;;13.95;12.13;;;10.20;99.90;;;;;;4987827;28;20066;-87
2022/05/08 06:45:40;;;;;;;15.15;12.00;;;10.00;99.90;;;;;;4991820;28;20526;-89
2022/05/08 06:48:16;;;;;;;14.63;11.80;;;10.00;99.90;;;;;;5001861;28;20084;-85
2022/05/08 06:50:44;;;;;;;14.73;11.23;;;10.20;99.90;;;;;;4997848;28;20455;-91
2022/05/08 06:53:12;;;;;;;13.98;11.32;;;10.30;99.90;;;;;;4995280;28;20061;-87
2022/05/08 06:55:46;;;;;;;13.93;11.05;;;10.40;99.90;;;;;;4981973;28;20079;-83
2022/05/08 06:58:16;;;;;;;13.90;11.45;;;10.40;99.90;;;;;;4956789;28;20062;-83
2022/05/08 07:03:28;;;;;;;13.15;11.07;;;10.60;99.90;;;;;;4993942;28;20105;-84
2022/05/08 07:05:57;;;;;;;14.32;11.68;;;10.80;99.90;;;;;;4975610;28;20146;-82
2022/05/08 07:08:24;;;;;;;14.25;11.38;;;10.80;99.90;;;;;;4993281;28;20042;-82
2022/05/08 07:10:53;;;;;;;12.50;10.65;;;10.90;99.90;;;;;;4993775;28;20050;-82
2022/05/08 07:13:25;;;;;;;14.38;11.50;;;11.00;99.90;;;;;;4994302;28;20105;-83
2022/05/08 07:15:53;;;;;;;13.75;11.15;;;11.10;99.90;;;;;;4989333;28;20412;-82
2022/05/08 07:18:21;;;;;;;14.00;11.30;;;11.30;99.90;;;;;;4985680;28;20412;-84
2022/05/08 07:20:48;;;;;;;13.63;10.88;;;11.40;99.90;;;;;;4960558;28;20048;-83
2022/05/08 07:23:16;;;;;;;13.70;11.30;;;11.50;99.90;;;;;;4993355;28;20050;-83
2022/05/08 07:25:43;;;;;;;14.82;11.60;;;11.60;99.90;;;;;;4993995;28;20127;-84
2022/05/08 07:28:12;;;;;;;11.85;10.55;;;11.60;99.90;;;;;;4989375;28;20042;-83
2022/05/08 07:30:39;;;;;;;14.73;11.65;;;11.70;99.90;;;;;;4985815;28;20074;-82
2022/05/08 07:33:06;;;;;;;13.30;11.10;;;11.70;99.90;;;;;;4993646;28;20050;-83
2022/05/08 07:38:21;;;;;;;14.02;11.43;;;12.00;99.90;;;;;;4986051;28;20057;-82
2022/05/08 07:40:50;;;;;;;13.20;10.88;;;12.10;99.90;;;;;;4995279;28;20056;-82
2022/05/08 07:43:19;;;;;;;13.27;11.07;;;12.10;99.90;;;;;;4995089;28;20393;-82
2022/05/08 07:45:48;;;;;;;11.85;10.02;;;12.20;99.90;;;;;;4995130;28;20142;-82
2022/05/08 07:48:17;;;;;;;16.70;11.32;;;12.30;99.90;;;;;;4995193;28;20046;-83
2022/05/08 07:50:45;;;;;;;15.40;11.65;;;12.30;99.90;;;;;;4994979;28;20052;-83
2022/05/08 07:53:15;;;;;;;13.18;10.63;;;12.30;99.90;;;;;;4995144;28;20054;-84
2022/05/08 07:55:43;;;;;;;13.65;10.80;;;12.40;99.90;;;;;;4995658;28;20090;-83
2022/05/08 07:58:11;;;;;;;11.40;9.52;;;12.60;99.90;;;;;;4989525;28;20064;-82
2022/05/08 08:00:40;;;;;;;12.68;10.10;;;12.60;99.90;;;;;;4992349;28;20052;-81
2022/05/08 08:03:07;;;;;;;11.95;10.13;;;12.70;99.90;;;;;;4985867;28;20050;-83
2022/05/08 08:05:34;;;;;;;14.45;11.55;;;12.60;99.90;;;;;;4994574;28;20074;-82
2022/05/08 08:08:01;;;;;;;14.75;11.75;;;12.60;99.90;;;;;;4995188;28;20084;-84
2022/05/08 08:10:29;;;;;;;13.05;10.88;;;12.70;99.90;;;;;;4994010;28;20129;-83
2022/05/08 08:12:56;;;;;;;12.43;10.23;;;12.80;99.90;;;;;;5001522;28;20089;-84
2022/05/08 08:15:24;;;;;;;13.13;10.25;;;12.90;99.90;;;;;;5001935;28;20084;-85
2022/05/08 08:17:52;;;;;;;15.45;11.70;;;13.00;99.90;;;;;;4997194;28;20049;-83
2022/05/08 08:20:20;;;;;;;13.95;11.75;;;13.00;99.90;;;;;;4996618;28;20125;-78
2022/05/08 08:22:47;;;;;;;14.98;11.73;;;13.10;99.90;;;;;;4993261;28;20046;-78
2022/05/08 08:25:14;;;;;;;11.27;9.95;;;13.10;99.90;;;;;;4992899;28;20137;-80
2022/05/08 08:27:41;;;;;;;14.82;11.07;;;13.40;99.90;;;;;;4993304;28;20070;-79
2022/05/08 08:30:09;;;;;;;13.43;11.23;;;13.40;99.90;;;;;;4992039;28;20074;-78
2022/05/08 08:32:36;;;;;;;13.63;10.65;;;13.40;99.90;;;;;;4992842;28;20125;-79
2022/05/08 08:35:07;;;;;;;12.88;11.10;;;13.50;99.90;;;;;;4993523;28;20081;-75
2022/05/08 08:37:34;;;;;;;13.85;11.05;;;13.60;99.90;;;;;;4994285;28;20074;-82
2022/05/08 08:40:01;;;;;;;11.65;9.25;;;13.60;99.90;;;;;;4991914;28;20066;-82
2022/05/08 08:42:30;;;;;;;12.43;9.68;;;13.70;99.90;;;;;;4993083;28;20563;-81
2022/05/08 08:47:52;;;;;;;14.35;11.13;;;13.70;99.90;;;;;;4990478;28;20058;-83
2022/05/08 08:50:23;;;;;;;15.27;11.52;;;13.80;99.90;;;;;;4993694;28;20113;-86
2022/05/08 08:52:51;;;;;;;13.18;10.32;;;13.80;99.90;;;;;;4990306;28;20046;-88
2022/05/08 08:55:20;;;;;;;11.95;9.73;;;13.80;99.90;;;;;;4993618;28;20050;-86
2022/05/08 08:57:48;;;;;;;10.48;8.63;;;13.90;99.90;;;;;;4982386;28;20061;-83
2022/05/08 09:00:16;;;;;;;13.15;9.93;;;14.10;99.90;;;;;;4992314;28;20554;-85
2022/05/08 09:02:43;;;;;;;13.23;10.40;;;14.10;99.90;;;;;;4994558;28;20050;-83
2022/05/08 09:05:12;;;;;;;12.25;9.73;;;14.10;99.90;;;;;;4988104;28;20050;-88
2022/05/08 09:07:43;;;;;;;13.95;11.93;;;14.30;99.90;;;;;;4994515;28;20399;-77
2022/05/08 09:10:13;;;;;;;11.93;9.57;;;14.40;99.90;;;;;;4994475;28;20081;-81
2022/05/08 09:12:43;;;;;;;11.73;10.27;;;14.60;99.90;;;;;;4987718;28;20054;-80
2022/05/08 09:15:22;;;;;;;13.85;10.85;;;14.60;99.90;;;;;;4984543;28;20133;-80
2022/05/08 09:17:51;;;;;;;12.70;10.57;;;14.70;99.90;;;;;;4989191;28;20130;-79
2022/05/08 09:20:35;;;;;;;10.73;9.18;;;14.70;99.90;;;;;;4990292;28;20141;-79
2022/05/08 09:23:10;;;;;;;13.95;10.50;;;14.70;99.90;;;;;;4990427;28;20165;-78
2022/05/08 09:26:00;;;;;;;16.05;11.30;;;14.80;99.90;;;;;;4989334;28;20046;-80
2022/05/08 09:28:29;;;;;;;13.93;10.00;;;14.90;99.90;;;;;;4981603;28;20054;-80
2022/05/08 09:31:05;;;;;;;13.43;11.20;;;15.00;99.90;;;;;;4989310;28;20090;-81
2022/05/08 09:33:35;;;;;;;11.38;9.30;;;15.00;99.90;;;;;;4986996;28;20039;-78
2022/05/08 09:36:07;;;;;;;14.32;10.93;;;15.20;99.90;;;;;;4985793;28;20105;-80
2022/05/08 09:38:49;;;;;;;13.63;10.98;;;15.40;99.90;;;;;;4988376;28;20058;-80
2022/05/08 09:41:20;;;;;;;10.48;9.10;;;15.50;99.90;;;;;;4987411;28;20134;-81
2022/05/08 09:43:47;;;;;;;12.27;9.10;;;15.60;99.90;;;;;;4968671;28;20050;-79
2022/05/08 09:46:15;;;;;;;12.60;8.98;;;15.80;99.90;;;;;;4989768;28;20140;-78
2022/05/08 09:48:46;;;;;;;10.52;8.32;;;15.90;99.90;;;;;;4988708;28;20080;-80
2022/05/08 09:51:15;;;;;;;8.75;6.93;;;16.20;99.90;;;;;;4991021;28;20058;-81
2022/05/08 09:53:46;;;;;;;11.68;8.68;;;16.20;99.90;;;;;;4973184;28;20472;-83
2022/05/08 09:56:14;;;;;;;11.48;8.98;;;16.30;99.90;;;;;;4985340;28;20433;-78
2022/05/08 09:58:43;;;;;;;12.82;8.57;;;16.30;99.90;;;;;;4986452;28;20129;-79
2022/05/08 10:01:11;;;;;;;9.48;7.75;;;16.30;99.90;;;;;;4987829;28;20050;-80
2022/05/08 10:03:38;;;;;;;8.52;6.90;;;16.50;99.90;;;;;;4989279;28;20585;-77
2022/05/08 10:06:06;;;;;;;8.70;7.38;;;16.60;99.90;;;;;;4989065;28;20150;-78
2022/05/08 10:08:37;;;;;;;9.00;7.05;;;16.80;99.90;;;;;;4990722;28;20051;-80
2022/05/08 10:13:54;;;;;;;8.57;6.63;;;16.90;99.90;;;;;;4990288;28;20603;-77
2022/05/08 10:16:55;;;;;;;8.48;6.60;;;17.10;99.90;;;;;;4990208;28;20074;-79
2022/05/08 10:19:49;;;;;;;7.65;6.30;;;17.20;99.60;;;;;;4988482;28;20411;-77
2022/05/08 10:22:24;;;;;;;;;;;17.30;99.50;;;;;;4962262;28;20069;-78
2022/05/08 10:24:57;;;;;;;8.57;6.35;;;17.40;99.90;;;;;;4979959;28;19969;-79
2022/05/08 10:27:28;;;;;;;8.52;6.50;;;17.60;99.40;;;;;;4995030;28;20488;-78
2022/05/08 10:30:32;;;;;;;8.95;6.57;;;17.50;99.40;;;;;;4994765;28;20057;-80
2022/05/08 10:33:00;;;;;;;8.48;6.07;;;17.50;98.30;;;;;;4996873;28;20117;-78
2022/05/08 10:35:32;;;;;;;7.90;6.53;;;17.50;98.80;;;;;;4995257;28;20108;-79
2022/05/08 10:38:22;;;;;;;7.60;6.25;;;17.50;98.80;;;;;;4999001;28;20053;-78
2022/05/08 10:40:50;;;;;;;7.40;5.63;;;17.80;98.50;;;;;;4992881;28;20422;-80
2022/05/08 10:43:34;;;;;;;7.90;5.90;;;17.80;98.60;;;;;;4992965;28;20050;-79
2022/05/08 10:46:26;;;;;;;7.47;5.63;;;17.90;98.10;;;;;;4979442;28;20054;-77
2022/05/08 10:48:54;;;;;;;7.63;5.28;;;17.90;98.40;;;;;;4982436;28;20043;-84
2022/05/08 10:51:22;;;;;;;9.18;6.07;;;18.00;98.30;;;;;;4994697;28;20054;-84
2022/05/08 10:53:49;;;;;;;8.60;5.88;;;17.90;97.80;;;;;;4994818;28;20050;-83
2022/05/08 10:56:17;;;;;;;6.10;5.07;;;17.90;97.50;;;;;;4994626;28;20081;-84
2022/05/08 10:58:55;;;;;;;6.93;5.13;;;18.00;97.50;;;;;;4974012;28;20102;-83
2022/05/08 11:01:24;;;;;;;7.70;5.80;;;18.00;97.40;;;;;;5000206;28;20753;-83
2022/05/08 11:03:51;;;;;;;8.38;6.22;;;18.10;97.40;;;;;;4997555;28;20058;-83
2022/05/08 11:06:23;;;;;;;8.85;5.90;;;18.00;97.40;;;;;;5000435;28;20049;-87
2022/05/08 11:08:50;;;;;;;6.90;5.25;;;18.10;97.50;;;;;;4995140;28;20049;-84
2022/05/08 11:11:20;;;;;;;7.78;5.43;;;18.10;97.60;;;;;;4992380;28;20130;-84
2022/05/08 11:13:48;;;;;;;6.85;5.10;;;18.20;96.90;;;;;;4979503;28;20054;-86
2022/05/08 11:16:33;;;;;;;6.30;4.80;;;18.20;97.00;;;;;;4981740;28;20100;-84
2022/05/08 11:19:01;;;;;;;8.07;5.28;;;18.30;96.90;;;;;;4983570;28;20050;-86
2022/05/08 11:21:29;;;;;;;6.70;5.00;;;18.40;96.50;;;;;;4980676;28;20078;-86
2022/05/08 11:23:56;;;;;;;7.40;4.60;;;18.30;96.50;;;;;;4994951;28;20070;-83
2022/05/08 11:26:31;;;;;;;6.88;4.63;;;18.40;96.40;;;;;;4994530;28;20477;-88
2022/05/08 11:29:00;;;;;;;7.53;4.47;;;18.40;95.50;;;;;;4989515;28;20057;-87
2022/05/08 11:31:29;;;;;;;6.55;4.20;;;18.30;95.60;;;;;;4981536;28;20128;-88
2022/05/08 11:36:44;;;;;;;6.03;4.07;;;18.30;95.40;;;;;;4980618;28;20519;-86
2022/05/08 11:39:14;;;;;;;6.43;3.80;;;18.30;95.50;;;;;;4993401;28;20046;-88
2022/05/08 11:41:44;;;;;;;6.60;4.25;;;18.50;95.30;;;;;;4994423;28;20042;-90
2022/05/08 11:44:23;;;;;;;4.72;3.60;;;18.70;94.50;;;;;;4996027;28;20101;-89
2022/05/08 11:46:56;;;;;;;5.20;3.90;;;18.80;94.80;;;;;;4990192;28;20404;-88
2022/05/08 11:49:24;;;;;;;6.05;4.10;;;18.90;94.90;;;;;;4979273;28;20058;-88
2022/05/08 11:51:54;;;;;;;5.38;3.83;;;18.90;94.80;;;;;;4978254;28;20435;-90
2022/05/08 11:54:30;;;;;;;5.07;3.88;;;18.90;94.70;;;;;;4996061;28;20137;-88
2022/05/08 11:57:16;;;;;;;5.38;3.80;;;18.90;94.30;;;;;;4954745;28;20054;-78
2022/05/08 11:59:45;;;;;;;5.65;3.72;;;19.00;94.30;;;;;;4991893;28;20142;-80
2022/05/08 12:02:15;;;;;;;5.65;3.90;;;18.80;94.40;;;;;;4989269;28;20093;-82
2022/05/08 12:04:54;;;;;;;6.00;4.63;;;18.90;94.70;;;;;;4992489;28;20125;-82
2022/05/08 12:07:22;;;;;;;5.55;4.00;;;18.90;94.50;;;;;;4984219;28;20050;-79
2022/05/08 12:09:56;;;;;;;5.05;3.83;;;18.90;94.30;;;;;;4992367;28;20138;-80
2022/05/08 12:12:26;;;;;;;;;;;19.00;94.30;;;;;;4988202;28;20081;-81
2022/05/08 12:14:55;;;;;;;5.57;3.70;;;19.10;94.20;;;;;;4990184;28;19929;-78
2022/05/08 12:17:24;;;;;;;5.60;3.75;;;19.10;93.90;;;;;;4990808;28;20097;-80
2022/05/08 12:19:53;;;;;;;5.53;3.90;;;19.10;93.80;;;;;;4991100;28;20479;-80
2022/05/08 12:22:24;;;;;;;4.90;3.63;;;19.00;93.70;;;;;;4991477;28;20058;-80
2022/05/08 12:24:51;;;;;;;4.82;3.38;;;19.00;93.50;;;;;;4985444;28;20073;-79
2022/05/08 12:27:19;;;;;;;4.65;3.25;;;19.10;93.00;;;;;;4991156;28;20097;-78
2022/05/08 12:29:46;;;;;;;6.55;3.40;;;19.20;93.20;;;;;;4991259;28;20464;-80
2022/05/08 12:32:15;;;;;;;4.22;2.90;;;19.20;92.30;;;;;;4989702;28;20574;-80
2022/05/08 12:34:45;;;;;;;4.05;2.90;;;19.30;91.90;;;;;;4988271;28;20130;-80
2022/05/08 12:37:14;;;;;;;5.47;3.40;;;19.50;92.10;;;;;;4987022;28;20050;-79
2022/05/08 12:39:42;;;;;;;4.10;2.90;;;19.50;91.70;;;;;;4991033;28;20133;-78
2022/05/08 12:42:11;;;;;;;4.20;2.75;;;19.60;90.70;;;;;;4981561;28;20097;-79
2022/05/08 12:44:38;;;;;;;4.57;2.60;;;19.60;88.00;;;;;;4988563;28;20105;-80
2022/05/08 12:47:07;;;;;;;4.07;2.55;;;19.60;83.60;;;;;;4985461;28;20046;-81
2022/05/08 12:49:34;;;;;;;4.03;2.10;;;19.50;81.20;;;;;;4985971;28;20802;-82
2022/05/08 12:52:04;;;;;;;4.32;2.13;;;19.50;81.60;;;;;;4990471;28;20042;-80
2022/05/08 12:54:32;;;;;;;4.32;2.45;;;19.60;83.50;;;;;;4989752;28;20086;-78
2022/05/08 12:57:01;;;;;;;5.15;2.08;;;19.40;82.40;;;;;;4994381;28;20101;-91
2022/05/08 12:59:47;;;;;;;5.20;2.78;;;19.30;82.10;;;;;;4987760;28;20061;-78
2022/05/08 13:02:17;;;;;;;4.35;2.60;;;19.30;90.40;;;;;;4992975;28;20047;-89
2022/05/08 13:04:48;;;;;;;4.63;2.33;;;19.40;82.30;;;;;;4979080;28;20057;-86
2022/05/08 13:07:17;;;;;;;4.60;2.50;;;19.30;82.40;;;;;;4992717;28;20471;-86
2022/05/08 13:09:44;;;;;;;5.38;3.13;;;19.30;81.70;;;;;;4993437;28;20177;-86
2022/05/08 13:12:12;;;;;;;5.72;2.88;;;19.30;81.80;;;;;;4989776;28;20129;-86
2022/05/08 13:14:39;;;;;;;4.63;2.50;;;19.30;81.60;;;;;;4989793;28;20038;-85
2022/05/08 13:17:08;;;;;;;6.40;2.65;;;19.20;82.20;;;;;;4993026;28;20085;-83
2022/05/08 13:19:35;;;;;;;3.53;2.25;;;19.20;81.80;;;;;;4990954;28;20129;-82